WetterOnline ( https://www.wetteronline.at )

Wetter aktuell Messina

Aktuelles Wetter: Messina (51m)

6-stündlich | Neueste Meldungen
Ortszeit Temperatur Wetter
Do, 14.11. 19:00 15.8° C leicht bewölkt
Do, 14.11. 13:00 18.0° C wolkig
Do, 14.11. 7:00 13.4° C wolkig
Do, 14.11. 1:00 13.2° C leicht bewölkt
Mi, 13.11. 19:00 17.2° C leicht bewölkt
Mi, 13.11. 13:00 17.8° C wolkig
Mi, 13.11. 7:00 16.0° C bewölkt
Mi, 13.11. 1:00 16.4° C bewölkt
Ortszeit Temperatur Wetter
Do, 14.11. 19:00 15.8° C leicht bewölkt
Do, 14.11. 18:55 16° C leicht bewölkt
Do, 14.11. 18:00 16.0° C leicht bewölkt
Do, 14.11. 17:55 16° C leicht bewölkt
Do, 14.11. 17:00 16.2° C leicht bewölkt
Do, 14.11. 16:55 16° C leicht bewölkt
Do, 14.11. 16:00 17.6° C leicht bewölkt
Do, 14.11. 15:55 18° C leicht bewölkt
Do, 14.11. 15:00 18.0° C leicht bewölkt
Ortszeit Relative Feuchte Sichtweite
Do, 14.11. 19:00 70% 20 km
Do, 14.11. 13:00 61% 20 km
Do, 14.11. 7:00 73% 20 km
Do, 14.11. 1:00 72% 12 km
Mi, 13.11. 19:00 45% 16 km
Mi, 13.11. 13:00 45% 20 km
Mi, 13.11. 7:00 76% 10 km
Mi, 13.11. 1:00 71% 10 km
Ortszeit Relative Feuchte Sichtweite
Do, 14.11. 19:00 70% 20 km
Do, 14.11. 18:55 68% >10 km
Do, 14.11. 18:00 69% 20 km
Do, 14.11. 17:55 68% >10 km
Do, 14.11. 17:00 65% 20 km
Do, 14.11. 16:55 68% >10 km
Do, 14.11. 16:00 60% 20 km
Do, 14.11. 15:55 60% >10 km
Do, 14.11. 15:00 55% 20 km
Ortszeit Niederschlagsmenge Niederschlagsart
Do, 14.11. 19:00 0.0 l/m2 in 12 Std. -
Do, 14.11. 13:00 0.0 l/m2 in 6 Std. -
Do, 14.11. 7:00 0.0 l/m2 in 12 Std. -
Do, 14.11. 1:00 0.0 l/m2 in 6 Std. -
Mi, 13.11. 19:00 2 l/m2 in 12 Std. -
Mi, 13.11. 13:00 2 l/m2 in 6 Std. Regen
Mi, 13.11. 7:00 6 l/m2 in 12 Std. -
Mi, 13.11. 1:00 6 l/m2 in 6 Std. Regen
Ortszeit Niederschlagsmenge Niederschlagsart
Do, 14.11. 19:00 keine Meldung -
Do, 14.11. 18:55 keine Meldung -
Do, 14.11. 18:00 keine Meldung -
Do, 14.11. 17:55 keine Meldung -
Do, 14.11. 17:00 keine Meldung -
Do, 14.11. 16:55 keine Meldung -
Do, 14.11. 16:00 keine Meldung -
Do, 14.11. 15:55 keine Meldung -
Do, 14.11. 15:00 keine Meldung -
Ortszeit Stärke Spitze Richtung
km/h Bft. km/h Grad Sektor
Do, 14.11. 19:00 9 2 - 230° SW
Do, 14.11. 13:00 9 2 - 190° S
Do, 14.11. 7:00 2 1 - 270° W
Do, 14.11. 1:00 0 0 - - -
Mi, 13.11. 19:00 6 1 - 330° NW
Mi, 13.11. 13:00 17 3 - 300° NW
Mi, 13.11. 7:00 2 1 - 130° SO
Mi, 13.11. 1:00 17 3 - 190° S
Ortszeit Stärke Spitze Richtung
km/h Bft. km/h Grad Sektor
Do, 14.11. 19:00 9 2 - 230° SW
Do, 14.11. 18:55 9 2 - 230° SW
Do, 14.11. 18:00 7 2 - 230° SW
Do, 14.11. 17:55 7 2 - 230° SW
Do, 14.11. 17:00 9 2 - 230° SW
Do, 14.11. 16:55 9 2 - 230° SW
Do, 14.11. 16:00 11 2 - 210° SW
Do, 14.11. 15:55 11 2 - 210° SW
Do, 14.11. 15:00 11 2 - 210° SW
Ortszeit Untergrenze Bedeckung Gattung
total tief tief mittel hoch
Do, 14.11. 19:00 900 m 3/8 2/8 Sc - Ci
Do, 14.11. 13:00 1050 m 5/8 3/8 Sc As Ci
Do, 14.11. 7:00 1050 m 7/8 1/8 Sc As Cs
Do, 14.11. 1:00 900 m 3/8 3/8 Sc - -
Mi, 13.11. 19:00 1050 m 4/8 2/8 Sc Ac -
Mi, 13.11. 13:00 1050 m 6/8 5/8 Sc As -
Mi, 13.11. 7:00 1050 m 8/8 4/8 Sc Ac Cs
Mi, 13.11. 1:00 1200 m 8/8 4/8 Sc Ns Cs
Ortszeit Bedeckungsgrad in Achtel und Wolkenuntergrenze
Do, 14.11. 19:00 2(900m)
Do, 14.11. 18:55 1-2(900m)
Do, 14.11. 18:00 1(1050m)
Do, 14.11. 17:55 1-2(1050m)
Do, 14.11. 17:00 2(1050m)
Do, 14.11. 16:55 1-2(1050m)
Do, 14.11. 16:00 3(1050m)
Do, 14.11. 15:55 3-4(1050m)
Do, 14.11. 15:00 3(1050m) 3(2400m)
Ortszeit Luftdruck NN (hPa) Tendenz (hPa in 3 Std.)
Do, 14.11. 19:00 1008 + 0,6
Do, 14.11. 13:00 1008 - 0,2
Do, 14.11. 7:00 1008 - 0,4
Do, 14.11. 1:00 1009 - 0,4
Mi, 13.11. 19:00 1007 + 0,4
Mi, 13.11. 13:00 1005 + 0,5
Mi, 13.11. 7:00 1000 + 3,0
Mi, 13.11. 1:00 995 + 1,9
Ortszeit Luftdruck NN (hPa) Tendenz (hPa in 3 Std.)
Do, 14.11. 19:00 1008 + 0,6
Do, 14.11. 18:55 1008 keine Meldung
Do, 14.11. 18:00 1008 + 0,2
Do, 14.11. 17:55 1007 keine Meldung
Do, 14.11. 17:00 1008 0,0
Do, 14.11. 16:55 1007 keine Meldung
Do, 14.11. 16:00 1008 - 0,5
Do, 14.11. 15:55 1007 keine Meldung
Do, 14.11. 15:00 1008 - 0,7
Ortszeit Schneehöhe (cm)
Do, 14.11. 19:00 -
Do, 14.11. 13:00 -
Do, 14.11. 7:00 0
Do, 14.11. 1:00 -
Mi, 13.11. 19:00 -
Mi, 13.11. 13:00 -
Mi, 13.11. 7:00 0
Mi, 13.11. 1:00 -
Ortszeit Schneehöhe (cm)
Do, 14.11. 19:00 -
Do, 14.11. 18:55 -
Do, 14.11. 18:00 -
Do, 14.11. 17:55 -
Do, 14.11. 17:00 -
Do, 14.11. 16:55 -
Do, 14.11. 16:00 -
Do, 14.11. 15:55 -
Do, 14.11. 15:00 -
Link zu dieser Seite / Seite empfehlen

Das Wetter in ...